Terminal Aerodrome Forecast
Issued by NWS

Home | Current Version | Previous Version | Text Only | Print | Product List | Glossary On
Versions: 1 2 3 4 5 6 7 8 9 10 11 12 13 14 15 16 17 18 19 20 21 22 23
000
FTUS41 KALY 050937 AAB
TAFPSF
TAF AMD
KPSF 050937Z 0510/0606 00000KT 2SM BR BKN001
      TEMPO 0510/0512 1/2SM FG VV001
     FM051200 28005KT P6SM SCT090
     FM051500 28010KT P6SM FEW040 SCT090
     FM051800 28013G22KT P6SM VCSH BKN040 BKN090
     FM052300 29009KT P6SM SCT040=

USA.gov is the U.S. government's official web portal to all federal, state and local government web resources and services.